Time;durP1;ratioP1;P1;durP2;ratioP2;P2;SDS_P1;SDS_P2;PMS_P1;PMS_P2;Temp;Humidity;BMP_temperature;BMP_pressure;BME280_temperature;BME280_humidity;BME280_pressure;Samples;Min_cycle;Max_cycle;Signal;HPM_P1;HPM_P2
2022/06/26 00:00:13;;;;;;;15.10;9.15;;;19.00;99.90;;;;;;4213596;28;20048;-85
2022/06/26 00:02:14;;;;;;;11.57;8.60;;;18.90;99.90;;;;;;4231584;28;20049;-86
2022/06/26 00:04:15;;;;;;;15.63;8.70;;;18.90;99.90;;;;;;4231721;28;20460;-85
2022/06/26 00:06:17;;;;;;;14.18;9.02;;;18.90;99.90;;;;;;4231816;28;20483;-85
2022/06/26 00:08:19;;;;;;;13.23;8.73;;;18.90;99.90;;;;;;4233844;28;20046;-85
2022/06/26 00:10:20;;;;;;;14.25;9.57;;;18.90;99.90;;;;;;4235325;28;20051;-85
2022/06/26 00:12:20;;;;;;;13.80;8.93;;;18.90;99.90;;;;;;4233540;28;20043;-85
2022/06/26 00:14:21;;;;;;;14.32;8.82;;;18.90;99.90;;;;;;4233883;28;20046;-85
2022/06/26 00:16:22;;;;;;;16.52;10.45;;;18.90;99.90;;;;;;4235101;28;20070;-85
2022/06/26 00:18:23;;;;;;;16.23;10.93;;;18.90;99.90;;;;;;4233293;28;20054;-85
2022/06/26 00:20:24;;;;;;;18.88;10.73;;;18.90;99.90;;;;;;4235354;28;20071;-85
2022/06/26 00:22:24;;;;;;;18.55;11.82;;;18.90;99.90;;;;;;4235141;28;20039;-85
2022/06/26 00:24:25;;;;;;;17.02;10.90;;;18.80;99.90;;;;;;4234998;27;20560;-86
2022/06/26 00:26:26;;;;;;;16.80;9.95;;;18.90;99.90;;;;;;4234992;28;20502;-85
2022/06/26 00:28:27;;;;;;;16.52;11.40;;;18.80;99.90;;;;;;4235043;28;20109;-85
2022/06/26 00:30:28;;;;;;;16.10;11.07;;;18.90;99.90;;;;;;4234416;28;20043;-85
2022/06/26 00:32:28;;;;;;;16.85;11.35;;;18.80;99.90;;;;;;4235176;28;20039;-86
2022/06/26 00:34:29;;;;;;;19.40;11.50;;;18.80;99.90;;;;;;4235295;28;20078;-85
2022/06/26 00:36:30;;;;;;;18.65;11.85;;;18.80;99.90;;;;;;4235050;28;20514;-86
2022/06/26 00:38:31;;;;;;;17.90;12.70;;;18.80;99.90;;;;;;4234494;28;20046;-85
2022/06/26 00:40:31;;;;;;;19.02;12.43;;;18.80;99.90;;;;;;4234581;28;20059;-85
2022/06/26 00:42:32;;;;;;;22.35;13.27;;;18.80;99.90;;;;;;4234434;28;20539;-85
2022/06/26 00:44:33;;;;;;;19.10;13.25;;;18.80;99.90;;;;;;4234393;28;20039;-86
2022/06/26 00:46:34;;;;;;;17.27;12.20;;;18.80;99.90;;;;;;4234521;28;20534;-86
2022/06/26 00:48:34;;;;;;;22.00;14.30;;;18.80;99.90;;;;;;4234322;28;20047;-85
2022/06/26 00:50:35;;;;;;;18.60;12.43;;;18.70;99.90;;;;;;4234804;28;20036;-85
2022/06/26 00:52:38;;;;;;;17.70;11.43;;;18.70;99.90;;;;;;4233400;28;20044;-86
2022/06/26 00:54:39;;;;;;;23.35;13.02;;;18.80;99.90;;;;;;4234747;28;20040;-85
2022/06/26 00:56:39;;;;;;;21.05;13.68;;;18.70;99.90;;;;;;4233093;28;20054;-85
2022/06/26 00:58:40;;;;;;;21.05;13.63;;;18.70;99.90;;;;;;4234665;28;20035;-85
2022/06/26 01:00:42;;;;;;;24.77;14.35;;;18.70;99.90;;;;;;4234641;28;20120;-86
2022/06/26 01:02:42;;;;;;;20.05;13.77;;;18.70;99.90;;;;;;4235118;28;20063;-85
2022/06/26 01:04:43;;;;;;;21.38;13.70;;;18.70;99.90;;;;;;4233413;28;20039;-85
2022/06/26 01:06:47;;;;;;;25.55;15.38;;;18.70;99.90;;;;;;4234428;28;20515;-86
2022/06/26 01:08:48;;;;;;;18.25;14.10;;;18.70;99.90;;;;;;4234053;27;20039;-84
2022/06/26 01:10:49;;;;;;;22.75;13.20;;;18.70;99.90;;;;;;4233101;28;20051;-84
2022/06/26 01:12:50;;;;;;;17.92;12.35;;;18.70;99.90;;;;;;4233659;28;20089;-85
2022/06/26 01:14:51;;;;;;;21.38;13.43;;;18.70;99.90;;;;;;4234061;28;20122;-85
2022/06/26 01:16:53;;;;;;;17.17;12.38;;;18.70;99.90;;;;;;4233967;28;20043;-84
2022/06/26 01:18:55;;;;;;;20.88;12.18;;;18.70;99.90;;;;;;4234342;28;20054;-84
2022/06/26 01:20:56;;;;;;;15.80;11.07;;;18.60;99.90;;;;;;4234069;28;20040;-85
2022/06/26 01:23:04;;;;;;;18.58;11.05;;;18.50;99.90;;;;;;4232684;28;20069;-85
2022/06/26 01:25:05;;;;;;;21.67;12.73;;;18.40;99.90;;;;;;4234142;28;20079;-84
2022/06/26 01:27:06;;;;;;;20.13;11.40;;;18.30;99.90;;;;;;4232021;28;20296;-85
2022/06/26 01:29:07;;;;;;;16.90;11.02;;;18.30;99.90;;;;;;4234057;28;20123;-84
2022/06/26 01:31:08;;;;;;;22.30;10.77;;;18.30;99.90;;;;;;4216048;28;20044;-85
2022/06/26 01:33:10;;;;;;;17.10;10.23;;;18.40;99.90;;;;;;4234054;27;20044;-84
2022/06/26 01:35:11;;;;;;;19.15;11.57;;;18.40;99.90;;;;;;4233487;28;20048;-84
2022/06/26 01:37:11;;;;;;;17.67;11.57;;;18.40;99.90;;;;;;4233874;28;20579;-84
2022/06/26 01:39:12;;;;;;;17.75;10.65;;;18.50;99.90;;;;;;4233033;28;20046;-85
2022/06/26 01:41:13;;;;;;;14.57;9.25;;;18.50;99.90;;;;;;4232813;28;20047;-85
2022/06/26 01:43:17;;;;;;;16.55;10.35;;;18.50;99.90;;;;;;4232201;28;20051;-85
2022/06/26 01:45:18;;;;;;;19.35;9.57;;;18.50;99.90;;;;;;4214367;28;20048;-85
2022/06/26 01:47:18;;;;;;;15.88;9.90;;;18.50;99.90;;;;;;4232416;28;20043;-85
2022/06/26 01:49:21;;;;;;;15.60;9.50;;;18.50;99.90;;;;;;4232386;28;20118;-85
2022/06/26 01:51:22;;;;;;;17.00;10.70;;;18.50;99.90;;;;;;4232632;28;20054;-85
2022/06/26 01:53:24;;;;;;;17.80;9.90;;;18.50;99.90;;;;;;4231574;28;20077;-85
2022/06/26 01:55:24;;;;;;;15.23;10.02;;;18.50;99.90;;;;;;4223989;28;20416;-85
2022/06/26 01:57:25;;;;;;;14.20;10.20;;;18.30;99.90;;;;;;4215725;28;20052;-85
2022/06/26 01:59:26;;;;;;;14.52;9.77;;;18.50;99.90;;;;;;4215370;28;20044;-85
2022/06/26 02:01:27;;;;;;;14.40;9.80;;;18.50;99.90;;;;;;4216480;28;20154;-85
2022/06/26 02:03:28;;;;;;;16.98;9.70;;;18.50;99.90;;;;;;4215374;28;20044;-85
2022/06/26 02:05:29;;;;;;;16.88;9.30;;;18.50;99.90;;;;;;4216279;28;20044;-85
2022/06/26 02:07:30;;;;;;;15.93;9.93;;;18.50;99.90;;;;;;4198557;28;20081;-85
2022/06/26 02:14:23;;;;;;;16.83;8.88;;;18.40;99.90;;;;;;4216317;28;20044;-85
2022/06/26 02:16:28;;;;;;;13.45;8.38;;;18.50;99.90;;;;;;4216351;28;20105;-85
2022/06/26 02:18:29;;;;;;;14.20;8.45;;;18.50;99.90;;;;;;4215982;28;20391;-85
2022/06/26 02:20:30;;;;;;;11.30;7.57;;;18.50;99.90;;;;;;4215242;28;20087;-85
2022/06/26 02:22:31;;;;;;;13.77;7.00;;;18.30;99.90;;;;;;4216461;28;20040;-85
2022/06/26 02:24:31;;;;;;;11.07;7.22;;;18.50;99.90;;;;;;4215111;28;20055;-86
2022/06/26 02:26:32;;;;;;;11.90;7.80;;;18.50;99.90;;;;;;4214701;28;20547;-86
2022/06/26 02:28:34;;;;;;;13.05;7.75;;;18.60;99.90;;;;;;4216308;28;20066;-85
2022/06/26 02:30:34;;;;;;;11.27;6.57;;;18.50;99.90;;;;;;4214922;28;20044;-85
2022/06/26 02:32:35;;;;;;;11.65;6.47;;;18.50;99.90;;;;;;4216067;28;20462;-86
2022/06/26 02:34:36;;;;;;;9.82;6.30;;;18.50;99.90;;;;;;4215950;28;20036;-85
2022/06/26 02:36:37;;;;;;;11.23;5.97;;;18.30;99.90;;;;;;4216327;28;20033;-84
2022/06/26 02:38:38;;;;;;;11.57;6.43;;;18.30;99.90;;;;;;4198327;28;20043;-85
2022/06/26 02:40:39;;;;;;;14.63;7.45;;;18.30;99.90;;;;;;4215656;28;20044;-84
2022/06/26 02:42:40;;;;;;;12.68;8.20;;;18.30;99.90;;;;;;4215737;28;20413;-85
2022/06/26 02:44:41;;;;;;;13.65;6.82;;;18.20;99.90;;;;;;4216426;28;20040;-84
2022/06/26 02:46:41;;;;;;;8.02;5.07;;;18.10;99.90;;;;;;4215930;28;20510;-85
2022/06/26 02:48:42;;;;;;;12.43;6.05;;;18.10;99.90;;;;;;4216507;28;20530;-84
2022/06/26 02:50:44;;;;;;;10.82;5.43;;;18.00;99.90;;;;;;4214184;28;20040;-84
2022/06/26 02:52:45;;;;;;;9.95;5.00;;;18.00;99.90;;;;;;4198097;28;20047;-85
2022/06/26 02:54:45;;;;;;;12.43;5.20;;;18.00;99.90;;;;;;4215951;28;20454;-85
2022/06/26 02:56:46;;;;;;;9.57;4.82;;;17.90;99.90;;;;;;4216374;28;20051;-85
2022/06/26 02:58:47;;;;;;;11.52;5.10;;;17.90;99.90;;;;;;4214939;28;20048;-85
2022/06/26 03:00:48;;;;;;;8.07;4.55;;;17.90;99.90;;;;;;4214139;28;20051;-85
2022/06/26 03:02:49;;;;;;;11.05;4.15;;;17.90;99.90;;;;;;4197581;28;20139;-85
2022/06/26 03:04:51;;;;;;;7.25;4.20;;;17.80;99.90;;;;;;4216104;28;20042;-85
2022/06/26 03:06:52;;;;;;;4.22;3.10;;;17.80;99.90;;;;;;4215594;28;20109;-85
2022/06/26 03:08:53;;;;;;;4.88;3.63;;;17.80;99.90;;;;;;4197889;28;20052;-85
2022/06/26 03:10:54;;;;;;;4.60;3.13;;;17.70;99.90;;;;;;4215675;28;20066;-85
2022/06/26 03:12:55;;;;;;;5.97;3.15;;;17.70;99.90;;;;;;4215406;28;20074;-85
2022/06/26 03:14:56;;;;;;;8.20;3.72;;;17.70;99.90;;;;;;4215878;28;20114;-85
2022/06/26 03:16:56;;;;;;;9.32;3.60;;;17.60;99.90;;;;;;4215697;28;20119;-85
2022/06/26 03:18:57;;;;;;;10.32;3.58;;;17.60;99.90;;;;;;4216954;28;20048;-85
2022/06/26 03:20:58;;;;;;;4.45;2.88;;;17.70;99.90;;;;;;4215656;28;20047;-85
2022/06/26 03:22:59;;;;;;;8.15;3.60;;;17.60;99.90;;;;;;4215494;28;20050;-85
2022/06/26 03:25:00;;;;;;;7.35;3.85;;;17.60;99.90;;;;;;4214714;28;20082;-85
2022/06/26 03:27:01;;;;;;;5.90;3.25;;;17.80;99.90;;;;;;4213472;28;20598;-85
2022/06/26 03:29:04;;;;;;;5.32;3.30;;;17.50;99.90;;;;;;4214296;28;20599;-85
2022/06/26 03:31:04;;;;;;;9.10;4.15;;;17.50;99.90;;;;;;4197072;28;20473;-85
2022/06/26 03:33:05;;;;;;;9.40;3.47;;;17.50;99.90;;;;;;4215709;28;20044;-85
2022/06/26 03:35:07;;;;;;;5.28;2.83;;;17.50;99.90;;;;;;4197741;28;20087;-85
2022/06/26 03:37:07;;;;;;;6.20;2.92;;;17.50;99.90;;;;;;4213514;28;20105;-85
2022/06/26 03:39:08;;;;;;;6.68;2.65;;;17.50;99.90;;;;;;4215432;28;20093;-85
2022/06/26 03:41:10;;;;;;;6.78;2.90;;;17.50;99.90;;;;;;4214058;28;20052;-85
2022/06/26 03:43:11;;;;;;;5.93;3.10;;;17.50;99.90;;;;;;4197094;28;20098;-85
2022/06/26 03:45:12;;;;;;;3.63;2.38;;;17.50;99.90;;;;;;4215300;28;20407;-85
2022/06/26 03:47:13;;;;;;;4.25;2.60;;;17.50;99.90;;;;;;4215779;28;20115;-85
2022/06/26 03:49:13;;;;;;;3.83;2.47;;;17.50;99.90;;;;;;4213244;28;20036;-85
2022/06/26 03:51:15;;;;;;;4.65;2.10;;;17.50;99.90;;;;;;4213801;28;20048;-85
2022/06/26 03:53:16;;;;;;;3.75;2.15;;;17.50;99.90;;;;;;4213838;28;20416;-85
2022/06/26 03:55:18;;;;;;;4.32;2.22;;;17.50;99.90;;;;;;4214094;28;20048;-85
2022/06/26 03:57:19;;;;;;;4.32;2.03;;;17.50;99.90;;;;;;4196437;28;20041;-85
2022/06/26 03:59:20;;;;;;;3.92;1.80;;;17.50;99.90;;;;;;4212572;28;20086;-84
2022/06/26 04:01:21;;;;;;;5.22;2.03;;;17.60;99.90;;;;;;4195597;28;20040;-85
2022/06/26 04:03:22;;;;;;;4.18;1.58;;;17.60;99.90;;;;;;4213573;28;20040;-85
2022/06/26 04:05:25;;;;;;;3.42;1.98;;;17.50;99.90;;;;;;4213746;28;20043;-84
2022/06/26 04:07:26;;;;;;;2.85;1.80;;;17.60;99.90;;;;;;4195334;28;20424;-85
2022/06/26 04:09:26;;;;;;;4.45;1.80;;;17.60;99.90;;;;;;4213498;28;20040;-85
2022/06/26 04:11:27;;;;;;;4.28;1.65;;;17.60;99.90;;;;;;4195580;28;20048;-84
2022/06/26 04:13:28;;;;;;;3.63;1.77;;;17.50;99.90;;;;;;4222309;28;20039;-84
2022/06/26 04:15:33;;;;;;;2.13;1.50;;;17.50;99.90;;;;;;4231635;28;20115;-84
2022/06/26 04:17:33;;;;;;;2.47;1.83;;;17.50;99.90;;;;;;4231697;28;20054;-84
2022/06/26 04:19:34;;;;;;;2.78;1.70;;;17.40;99.90;;;;;;4231280;28;20047;-85
2022/06/26 04:21:35;;;;;;;7.35;1.83;;;17.40;99.90;;;;;;4232356;28;20075;-85
2022/06/26 04:23:36;;;;;;;2.67;1.67;;;17.40;99.90;;;;;;4231760;28;20048;-85
2022/06/26 04:25:39;;;;;;;3.33;1.65;;;17.40;99.90;;;;;;4231665;28;20063;-85
2022/06/26 04:27:40;;;;;;;2.20;1.58;;;17.40;99.90;;;;;;4231737;28;20472;-85
2022/06/26 04:29:40;;;;;;;4.05;2.08;;;17.40;99.90;;;;;;4230485;28;20108;-85
2022/06/26 04:31:41;;;;;;;4.32;1.60;;;17.40;99.90;;;;;;4231302;28;20047;-84
2022/06/26 04:33:43;;;;;;;2.50;1.65;;;17.40;99.90;;;;;;4232051;28;20043;-84
2022/06/26 04:35:44;;;;;;;3.47;1.80;;;17.40;99.90;;;;;;4231896;28;20102;-85
2022/06/26 04:37:46;;;;;;;2.33;1.95;;;17.40;99.90;;;;;;4231547;28;20036;-85
2022/06/26 04:39:48;;;;;;;2.30;1.85;;;17.40;99.90;;;;;;4231980;28;20402;-85
2022/06/26 04:41:49;;;;;;;5.70;1.90;;;17.40;99.90;;;;;;4213383;28;20080;-85
2022/06/26 04:43:49;;;;;;;5.78;1.90;;;17.40;99.90;;;;;;4230259;28;20566;-84
2022/06/26 04:45:50;;;;;;;6.30;2.15;;;17.40;99.90;;;;;;4230100;28;20514;-85
2022/06/26 04:47:51;;;;;;;3.38;2.15;;;17.40;99.90;;;;;;4230472;28;20054;-84
2022/06/26 04:49:52;;;;;;;4.05;2.58;;;17.40;99.90;;;;;;4230099;28;20073;-85
2022/06/26 04:51:55;;;;;;;4.22;2.10;;;17.40;99.90;;;;;;4230303;28;20515;-85
2022/06/26 04:53:55;;;;;;;3.53;2.13;;;17.40;99.90;;;;;;4228195;28;20036;-85
2022/06/26 04:55:56;;;;;;;4.35;2.08;;;17.50;99.90;;;;;;4224064;28;20123;-85
2022/06/26 04:57:57;;;;;;;4.13;2.40;;;17.50;99.90;;;;;;4217973;28;20047;-85
2022/06/26 04:59:58;;;;;;;2.90;2.20;;;17.60;99.90;;;;;;4227691;28;20075;-85
2022/06/26 05:01:58;;;;;;;4.70;2.63;;;17.60;99.90;;;;;;4216722;28;20048;-85
2022/06/26 05:03:59;;;;;;;2.80;1.95;;;17.60;99.90;;;;;;4233728;28;20425;-85
2022/06/26 05:06:00;;;;;;;3.35;2.45;;;17.60;99.90;;;;;;4216469;28;20526;-85
2022/06/26 05:08:01;;;;;;;3.60;2.42;;;17.70;99.90;;;;;;4234405;28;20376;-85
2022/06/26 05:10:02;;;;;;;4.90;2.33;;;17.70;99.90;;;;;;4234617;28;20058;-85
2022/06/26 05:12:03;;;;;;;3.53;2.20;;;17.70;99.90;;;;;;4225255;28;20040;-85
2022/06/26 05:14:03;;;;;;;4.80;2.50;;;17.70;99.90;;;;;;4217651;28;20400;-85
2022/06/26 05:16:05;;;;;;;4.00;2.40;;;17.70;99.90;;;;;;4217554;28;20040;-85
2022/06/26 05:18:05;;;;;;;6.97;3.00;;;17.70;99.90;;;;;;4216242;28;20055;-85
2022/06/26 05:20:06;;;;;;;5.38;3.05;;;17.80;99.90;;;;;;4216956;28;20504;-85
2022/06/26 05:22:07;;;;;;;5.78;2.28;;;17.80;99.90;;;;;;4216384;28;20040;-85
2022/06/26 05:24:08;;;;;;;4.28;2.60;;;17.90;99.90;;;;;;4217251;28;20382;-85
2022/06/26 05:26:09;;;;;;;3.63;2.38;;;17.90;99.90;;;;;;4216647;28;20135;-85
2022/06/26 05:28:11;;;;;;;7.00;2.95;;;17.90;99.90;;;;;;4215332;28;20048;-85
2022/06/26 05:30:12;;;;;;;3.33;2.65;;;18.00;99.90;;;;;;4216554;28;20134;-85
2022/06/26 05:32:12;;;;;;;5.10;2.70;;;18.00;99.90;;;;;;4216766;28;20509;-85
2022/06/26 05:34:13;;;;;;;6.15;3.13;;;18.00;99.90;;;;;;4215335;28;20149;-85
2022/06/26 05:36:14;;;;;;;5.18;3.30;;;18.10;99.90;;;;;;4216454;28;20067;-85
2022/06/26 05:38:15;;;;;;;5.18;3.40;;;18.00;99.90;;;;;;4215146;28;20097;-85
2022/06/26 05:40:15;;;;;;;3.80;2.85;;;18.10;99.90;;;;;;4216546;28;20438;-85
2022/06/26 05:42:16;;;;;;;8.40;3.80;;;18.10;99.90;;;;;;4215691;28;20428;-85
2022/06/26 05:44:17;;;;;;;4.55;3.28;;;18.10;99.90;;;;;;4215515;28;20043;-85
2022/06/26 05:46:18;;;;;;;5.88;3.80;;;18.00;99.90;;;;;;4216552;28;20051;-85
2022/06/26 05:48:18;;;;;;;7.22;3.83;;;18.00;99.90;;;;;;4216395;28;20036;-85
2022/06/26 05:50:20;;;;;;;6.47;3.70;;;18.00;99.90;;;;;;4215522;28;20056;-85
2022/06/26 05:52:21;;;;;;;5.97;3.92;;;18.00;99.90;;;;;;4215732;28;20229;-85
2022/06/26 05:54:22;;;;;;;9.15;4.35;;;18.00;99.90;;;;;;4216307;28;20056;-85
2022/06/26 05:56:23;;;;;;;6.97;4.75;;;18.00;99.90;;;;;;4216571;28;20047;-85
2022/06/26 05:58:23;;;;;;;7.88;5.50;;;18.00;99.90;;;;;;4216603;28;20119;-85
2022/06/26 06:00:24;;;;;;;9.38;5.93;;;18.00;99.90;;;;;;4214828;28;20044;-85
2022/06/26 06:02:25;;;;;;;8.48;5.90;;;18.00;99.90;;;;;;4198146;28;20449;-85
2022/06/26 06:04:26;;;;;;;6.47;5.05;;;18.00;99.90;;;;;;4215382;28;20044;-85
2022/06/26 06:06:27;;;;;;;9.07;4.90;;;18.00;99.90;;;;;;4214407;28;20476;-85
2022/06/26 06:08:28;;;;;;;7.13;5.20;;;18.10;99.90;;;;;;4216288;28;20032;-85
2022/06/26 06:10:29;;;;;;;9.73;5.50;;;18.10;99.90;;;;;;4216618;28;20070;-85
2022/06/26 06:12:30;;;;;;;8.65;5.88;;;18.10;99.90;;;;;;4216046;28;20036;-85
2022/06/26 06:14:31;;;;;;;9.75;6.10;;;18.10;99.90;;;;;;4214402;28;20543;-85
2022/06/26 06:17:02;;;;;;;;;;;;;;;;;;;;;
2022/06/26 06:19:03;;;;;;;10.98;6.32;;;18.10;99.90;;;;;;4213844;28;20040;-85
2022/06/26 06:21:03;;;;;;;11.65;6.70;;;18.00;99.90;;;;;;4218262;28;20036;-84
2022/06/26 06:23:06;;;;;;;9.82;6.65;;;18.00;99.90;;;;;;4215602;28;20495;-85
2022/06/26 06:25:07;;;;;;;8.02;5.85;;;18.00;99.90;;;;;;4215979;28;20068;-85
2022/06/26 06:27:08;;;;;;;10.57;6.63;;;18.00;99.90;;;;;;4215777;28;20472;-85
2022/06/26 06:29:10;;;;;;;11.75;7.00;;;18.00;99.90;;;;;;4215905;28;20093;-85
2022/06/26 06:31:11;;;;;;;16.92;7.60;;;18.10;99.90;;;;;;4215592;28;20043;-85
2022/06/26 06:33:11;;;;;;;13.35;8.02;;;18.10;99.90;;;;;;4216131;28;20445;-85
2022/06/26 06:35:13;;;;;;;10.07;7.35;;;18.10;99.90;;;;;;4215945;28;20040;-85
2022/06/26 06:37:14;;;;;;;10.18;6.88;;;18.10;99.90;;;;;;4215923;28;20495;-85
2022/06/26 06:39:15;;;;;;;11.45;7.13;;;18.20;99.90;;;;;;4215667;28;20036;-85
2022/06/26 06:41:16;;;;;;;10.70;6.32;;;18.20;99.90;;;;;;4215999;28;20151;-85
2022/06/26 06:43:16;;;;;;;12.15;7.43;;;18.20;99.90;;;;;;4213998;28;20060;-85
2022/06/26 06:45:17;;;;;;;12.52;7.95;;;18.30;99.90;;;;;;4215938;28;20076;-85
2022/06/26 06:47:18;;;;;;;10.20;7.28;;;18.30;99.90;;;;;;4215527;28;20435;-85
2022/06/26 06:49:18;;;;;;;12.43;7.35;;;18.40;99.90;;;;;;4214143;28;20408;-84
2022/06/26 06:51:19;;;;;;;11.80;7.35;;;18.50;99.90;;;;;;4214962;28;20059;-85
2022/06/26 06:53:21;;;;;;;11.02;7.30;;;18.50;99.90;;;;;;4215486;28;20139;-85
2022/06/26 06:55:21;;;;;;;12.38;7.57;;;18.70;99.90;;;;;;4215122;28;20044;-85
2022/06/26 06:57:22;;;;;;;11.10;6.93;;;18.70;99.90;;;;;;4215535;28;20055;-85
2022/06/26 06:59:24;;;;;;;12.77;7.30;;;18.80;99.90;;;;;;4215896;28;20040;-85
2022/06/26 07:01:25;;;;;;;11.93;7.45;;;18.80;99.90;;;;;;4215874;28;20040;-85
2022/06/26 07:03:27;;;;;;;10.52;7.85;;;18.80;99.90;;;;;;4214416;28;20122;-85
2022/06/26 07:06:04;;;;;;;12.48;8.38;;;18.90;99.90;;;;;;4215874;28;20048;-85
2022/06/26 07:08:05;;;;;;;15.35;8.80;;;19.00;99.90;;;;;;4211843;28;20105;-85
2022/06/26 07:10:09;;;;;;;13.15;8.70;;;18.80;99.90;;;;;;4215596;28;20123;-85
2022/06/26 07:12:09;;;;;;;13.02;8.77;;;18.80;99.90;;;;;;4215270;28;20061;-84
2022/06/26 07:14:10;;;;;;;16.85;9.10;;;18.80;99.90;;;;;;4215422;28;20138;-84
2022/06/26 07:16:11;;;;;;;10.57;8.20;;;18.80;99.90;;;;;;4215219;28;20109;-84
2022/06/26 07:18:12;;;;;;;14.77;9.30;;;18.80;99.90;;;;;;4214458;28;20032;-84
2022/06/26 07:20:13;;;;;;;14.55;8.48;;;18.90;99.90;;;;;;4215262;28;20078;-84
2022/06/26 07:22:14;;;;;;;13.40;9.32;;;19.00;99.90;;;;;;4214562;28;20105;-84
2022/06/26 07:24:15;;;;;;;14.20;9.57;;;19.20;99.90;;;;;;4215584;28;20051;-84
2022/06/26 07:26:16;;;;;;;14.70;9.45;;;19.20;99.90;;;;;;4214833;28;20048;-85
2022/06/26 07:28:16;;;;;;;16.58;9.80;;;19.30;99.90;;;;;;4214936;28;20087;-84
2022/06/26 07:30:19;;;;;;;13.90;8.85;;;19.40;99.90;;;;;;4213910;28;20055;-84
2022/06/26 07:32:20;;;;;;;17.30;10.02;;;19.40;99.90;;;;;;4213884;28;20044;-84
2022/06/26 07:34:22;;;;;;;15.65;9.95;;;19.40;99.90;;;;;;4213606;28;20419;-84
2022/06/26 07:36:22;;;;;;;16.30;10.55;;;19.30;99.90;;;;;;4215139;28;20078;-84
2022/06/26 07:38:23;;;;;;;14.30;9.52;;;19.20;99.90;;;;;;4214307;28;20040;-84
2022/06/26 07:40:24;;;;;;;14.55;10.48;;;19.20;99.90;;;;;;4213600;28;20052;-85
2022/06/26 07:42:25;;;;;;;15.10;10.90;;;19.20;99.90;;;;;;4215437;28;20122;-85
2022/06/26 07:44:26;;;;;;;16.83;10.15;;;19.20;99.90;;;;;;4214956;28;20047;-85
2022/06/26 07:46:27;;;;;;;16.80;10.93;;;19.20;99.90;;;;;;4214222;28;20545;-85
2022/06/26 07:48:27;;;;;;;16.23;10.93;;;19.10;99.90;;;;;;4214601;28;20040;-85
2022/06/26 07:50:28;;;;;;;19.17;10.23;;;19.10;99.90;;;;;;4214056;28;20082;-85
2022/06/26 07:52:29;;;;;;;18.17;10.88;;;19.10;99.90;;;;;;4214854;28;20036;-85
2022/06/26 07:54:29;;;;;;;15.85;10.27;;;19.20;99.90;;;;;;4214773;28;20127;-85
2022/06/26 07:56:30;;;;;;;17.52;11.32;;;19.20;99.90;;;;;;4214631;28;20040;-85
2022/06/26 07:58:31;;;;;;;18.33;10.82;;;19.30;99.90;;;;;;4214474;28;20499;-85
2022/06/26 08:00:32;;;;;;;16.42;10.93;;;19.30;99.90;;;;;;4214595;28;20040;-84
2022/06/26 08:02:33;;;;;;;19.88;11.00;;;19.40;99.90;;;;;;4214359;28;20047;-84
2022/06/26 08:04:34;;;;;;;15.07;11.10;;;19.50;99.90;;;;;;4214883;28;20056;-84
2022/06/26 08:06:35;;;;;;;16.42;10.95;;;19.70;99.90;;;;;;4215133;28;20047;-84
2022/06/26 08:08:36;;;;;;;15.43;9.70;;;19.80;99.90;;;;;;4214120;28;20040;-85
2022/06/26 08:10:36;;;;;;;14.43;9.88;;;19.90;99.90;;;;;;4214284;28;20052;-84
2022/06/26 08:12:37;;;;;;;19.40;10.77;;;19.90;99.90;;;;;;4214939;28;20505;-84
2022/06/26 08:14:38;;;;;;;13.88;9.30;;;19.90;99.90;;;;;;4214460;28;20052;-84
2022/06/26 08:16:39;;;;;;;15.02;9.20;;;20.00;99.90;;;;;;4212478;28;20051;-85
2022/06/26 08:18:40;;;;;;;14.95;9.45;;;20.10;99.90;;;;;;4229433;28;20057;-85
2022/06/26 08:20:41;;;;;;;13.05;8.90;;;20.20;99.90;;;;;;4231637;28;20077;-85
2022/06/26 08:22:42;;;;;;;10.75;7.28;;;20.30;99.90;;;;;;4231520;28;20518;-85
2022/06/26 08:24:42;;;;;;;12.23;7.60;;;20.20;99.90;;;;;;4231286;28;20140;-85
2022/06/26 08:26:43;;;;;;;13.70;7.82;;;20.20;99.90;;;;;;4229986;28;20059;-85
2022/06/26 08:28:44;;;;;;;15.02;8.40;;;20.40;99.90;;;;;;4232746;28;20472;-85
2022/06/26 08:30:45;;;;;;;12.93;7.68;;;20.50;99.90;;;;;;4234789;28;20067;-85
2022/06/26 08:32:46;;;;;;;12.07;7.85;;;20.60;99.90;;;;;;4234557;28;20039;-85
2022/06/26 08:34:47;;;;;;;10.52;7.07;;;20.80;99.90;;;;;;4234682;28;20168;-85
2022/06/26 08:36:48;;;;;;;13.05;6.85;;;20.90;99.90;;;;;;4233519;28;20435;-86
2022/06/26 08:38:48;;;;;;;14.13;6.97;;;21.10;99.90;;;;;;4232963;28;20127;-85
2022/06/26 08:40:51;;;;;;;9.55;6.10;;;21.20;99.90;;;;;;4234652;28;20511;-86
2022/06/26 08:42:53;;;;;;;7.93;4.90;;;21.40;99.90;;;;;;4234593;28;20126;-85
2022/06/26 08:44:56;;;;;;;7.78;5.20;;;21.50;99.90;;;;;;4234982;28;20579;-85
2022/06/26 08:46:59;;;;;;;9.95;5.45;;;21.40;99.90;;;;;;4234304;28;20047;-85
2022/06/26 08:49:06;;;;;;;8.68;5.88;;;21.30;99.90;;;;;;4234468;28;20051;-85
2022/06/26 08:51:07;;;;;;;9.73;5.38;;;21.20;99.90;;;;;;4234751;28;20048;-85
2022/06/26 08:53:10;;;;;;;8.02;4.75;;;21.30;99.90;;;;;;4234787;28;20472;-85
2022/06/26 08:55:13;;;;;;;8.13;5.05;;;21.30;99.90;;;;;;4233009;28;20055;-86
2022/06/26 08:57:17;;;;;;;8.45;5.50;;;21.50;99.90;;;;;;4232890;28;20055;-85
2022/06/26 08:59:18;;;;;;;7.43;4.53;;;21.70;99.90;;;;;;4233780;28;20090;-85
2022/06/26 09:01:19;;;;;;;8.00;4.22;;;21.80;99.90;;;;;;4234170;28;20044;-85
2022/06/26 09:03:21;;;;;;;5.68;4.20;;;22.00;99.90;;;;;;4235031;27;20105;-85
2022/06/26 09:05:22;;;;;;;9.20;5.00;;;21.80;99.20;;;;;;4234747;28;20039;-85
2022/06/26 09:07:23;;;;;;;6.75;4.60;;;21.60;99.10;;;;;;4234330;27;20079;-86
2022/06/26 09:09:27;;;;;;;6.18;4.00;;;21.60;99.00;;;;;;4234144;28;20102;-86
2022/06/26 09:11:37;;;;;;;7.38;4.57;;;21.70;98.70;;;;;;4234501;28;20113;-85
2022/06/26 09:13:43;;;;;;;9.38;4.85;;;21.70;97.60;;;;;;4233710;28;20084;-85
2022/06/26 09:15:45;;;;;;;7.43;4.10;;;21.60;99.00;;;;;;4225937;28;20044;-86
2022/06/26 09:18:04;;;;;;;6.20;3.63;;;21.40;98.30;;;;;;4216182;28;20043;-85
2022/06/26 09:20:07;;;;;;;;;;;21.20;98.60;;;;;;4216371;28;20059;-85
2022/06/26 09:22:13;;;;;;;6.80;3.80;;;21.10;98.00;;;;;;4217051;28;19981;-85
2022/06/26 09:24:19;;;;;;;7.00;4.30;;;21.10;99.30;;;;;;4217223;28;20080;-85
2022/06/26 09:26:20;;;;;;;5.85;3.53;;;21.10;98.90;;;;;;4216583;28;20437;-85
2022/06/26 09:28:22;;;;;;;4.82;3.50;;;21.00;99.10;;;;;;4215638;28;20055;-86
2022/06/26 09:30:23;;;;;;;4.93;2.70;;;21.00;98.60;;;;;;4197431;28;20048;-86
2022/06/26 09:32:27;;;;;;;6.00;2.85;;;20.90;98.80;;;;;;4215583;28;20568;-86
2022/06/26 09:34:27;;;;;;;8.88;2.72;;;20.80;97.90;;;;;;4215591;28;20040;-86
2022/06/26 09:36:28;;;;;;;5.43;3.10;;;20.90;97.40;;;;;;4214126;28;20492;-86
2022/06/26 09:38:36;;;;;;;7.35;3.17;;;21.20;97.60;;;;;;4215662;28;20484;-86
2022/06/26 09:40:55;;;;;;;6.03;2.60;;;21.50;97.20;;;;;;4213713;28;20507;-86
2022/06/26 09:42:56;;;;;;;3.92;2.35;;;21.70;96.20;;;;;;4217545;28;20322;-86
2022/06/26 09:44:59;;;;;;;5.00;2.67;;;22.00;96.00;;;;;;4233431;28;20118;-86
2022/06/26 09:47:06;;;;;;;5.32;2.80;;;22.20;95.60;;;;;;4232072;28;20108;-86
2022/06/26 09:49:07;;;;;;;3.38;2.10;;;22.40;95.00;;;;;;4225369;28;20040;-86
2022/06/26 09:51:10;;;;;;;2.97;1.80;;;22.60;95.20;;;;;;4216777;28;20376;-86
2022/06/26 09:53:11;;;;;;;2.60;1.20;;;22.70;94.20;;;;;;4216578;28;20059;-86
2022/06/26 09:55:13;;;;;;;13.20;2.97;;;22.70;94.10;;;;;;4216565;28;20416;-87
2022/06/26 09:57:14;;;;;;;2.65;1.63;;;22.90;93.50;;;;;;4216222;28;20047;-86
2022/06/26 09:59:16;;;;;;;2.35;1.58;;;23.10;93.20;;;;;;4216465;28;20044;-86
2022/06/26 10:08:21;;;;;;;3.33;1.67;;;23.90;91.60;;;;;;4217008;28;20044;-87
2022/06/26 10:10:23;;;;;;;3.63;1.70;;;23.90;90.40;;;;;;4217002;28;20055;-87
2022/06/26 10:12:25;;;;;;;3.22;2.00;;;24.20;90.80;;;;;;4216188;28;20446;-86
2022/06/26 10:14:35;;;;;;;2.28;1.95;;;24.60;91.70;;;;;;4216511;28;20104;-87
2022/06/26 10:16:38;;;;;;;3.05;1.83;;;24.80;90.10;;;;;;4215405;28;20492;-87
2022/06/26 10:19:07;;;;;;;3.22;1.40;;;24.70;90.30;;;;;;4216954;28;20040;-87
2022/06/26 10:21:12;;;;;;;3.13;1.75;;;24.30;85.60;;;;;;4215025;28;20052;-86
2022/06/26 10:23:35;;;;;;;3.20;1.67;;;24.00;86.60;;;;;;4216795;28;20056;-87
2022/06/26 10:25:36;;;;;;;1.92;1.60;;;23.60;82.70;;;;;;4216159;28;20052;-85
2022/06/26 10:27:37;;;;;;;3.20;1.85;;;23.70;88.30;;;;;;4216596;28;20462;-87
2022/06/26 10:29:40;;;;;;;4.20;1.50;;;23.80;88.00;;;;;;4198387;28;20041;-86
2022/06/26 10:31:48;;;;;;;3.05;1.73;;;24.00;87.80;;;;;;4216161;28;20052;-85
2022/06/26 10:33:49;;;;;;;3.70;1.85;;;24.20;86.60;;;;;;4215210;28;20059;-85
2022/06/26 10:35:51;;;;;;;5.90;1.92;;;24.20;85.90;;;;;;4216673;28;20044;-85
2022/06/26 10:37:52;;;;;;;4.03;1.67;;;24.00;84.60;;;;;;4215021;28;20082;-86
2022/06/26 10:39:54;;;;;;;3.67;1.30;;;23.90;84.40;;;;;;4216676;28;20044;-85